Aviation Digital Data Service (ADDS)

Output produced by METARs form (0746 UTC 18 September 2021)
found at http://www.aviationweather.gov/metar/data/
 
METAR text: KLGA 180651Z 02005KT 10SM FEW009 SCT017 SCT250 22/19 A3008 RMK AO2 SLP185 T02170189
Conditions at: KLGA (NYC/LA GUARDIA , NY, US) observed 0651 UTC 18 September 2021
Temperature: 21.7°C (71°F)
Dewpoint: 18.9°C (66°F) [RH = 84%]
Pressure (altimeter): 30.08 inches Hg (1018.7 mb)
[Sea-level pressure: 1018.5 mb]
Winds: from the NNE (20 degrees) at 6 MPH (5 knots; 2.6 m/s)
Visibility: 10 or more miles (16+ km)
Ceiling: at least 12,000 feet AGL
Clouds: few clouds at 900 feet AGL
scattered clouds at 1700 feet AGL
scattered clouds at 25000 feet AGL
Weather: no significant weather observed at this time

METAR text: KLGA 180629Z 03003KT 10SM FEW009 SCT014 SCT250 21/19 A3007 RMK AO2 T02110189
Conditions at: KLGA (NYC/LA GUARDIA , NY, US) observed 0629 UTC 18 September 2021
Temperature: 21.1°C (70°F)
Dewpoint: 18.9°C (66°F) [RH = 87%]
Pressure (altimeter): 30.07 inches Hg (1018.4 mb)
Winds: from the NNE (30 degrees) at 3 MPH (3 knots; 1.5 m/s)
Visibility: 10 or more miles (16+ km)
Ceiling: at least 12,000 feet AGL
Clouds: few clouds at 900 feet AGL
scattered clouds at 1400 feet AGL
scattered clouds at 25000 feet AGL
Weather: no significant weather observed at this time

METAR text: KLGA 180551Z 05006KT 10SM BKN009 OVC014 22/19 A3008 RMK AO2 SLP186 T02170189 10233 20217 58014
Conditions at: KLGA (NYC/LA GUARDIA , NY, US) observed 0551 UTC 18 September 2021
Temperature: 21.7°C (71°F)
Dewpoint: 18.9°C (66°F) [RH = 84%]
Pressure (altimeter): 30.08 inches Hg (1018.7 mb)
[Sea-level pressure: 1018.6 mb]
Winds: from the NE (50 degrees) at 7 MPH (6 knots; 3.1 m/s)
Visibility: 10 or more miles (16+ km)
Ceiling: 900 feet AGL
Clouds: broken clouds at 900 feet AGL
overcast cloud deck at 1400 feet AGL
Weather: no significant weather observed at this time

METAR text: KLGA 180541Z 04006KT 10SM BKN009 OVC014 22/19 A3008 RMK AO2 T02170189
Conditions at: KLGA (NYC/LA GUARDIA , NY, US) observed 0541 UTC 18 September 2021
Temperature: 21.7°C (71°F)
Dewpoint: 18.9°C (66°F) [RH = 84%]
Pressure (altimeter): 30.08 inches Hg (1018.7 mb)
Winds: from the NE (40 degrees) at 7 MPH (6 knots; 3.1 m/s)
Visibility: 10 or more miles (16+ km)
Ceiling: 900 feet AGL
Clouds: broken clouds at 900 feet AGL
overcast cloud deck at 1400 feet AGL
Weather: no significant weather observed at this time

METAR text: KLGA 180451Z 04007KT 10SM BKN014 OVC060 22/19 A3010 RMK AO2 SLP192 T02220194 402390211
Conditions at: KLGA (NYC/LA GUARDIA , NY, US) observed 0451 UTC 18 September 2021
Temperature: 22.2°C (72°F)
Dewpoint: 19.4°C (67°F) [RH = 84%]
Pressure (altimeter): 30.10 inches Hg (1019.4 mb)
[Sea-level pressure: 1019.2 mb]
Winds: from the NE (40 degrees) at 8 MPH (7 knots; 3.6 m/s)
Visibility: 10 or more miles (16+ km)
Ceiling: 1400 feet AGL
Clouds: broken clouds at 1400 feet AGL
overcast cloud deck at 6000 feet AGL
Weather: no significant weather observed at this time

METAR text: KLGA 180351Z 05011KT 10SM BKN010 OVC014 23/19 A3011 RMK AO2 SLP196 T02280194
Conditions at: KLGA (NYC/LA GUARDIA , NY, US) observed 0351 UTC 18 September 2021
Temperature: 22.8°C (73°F)
Dewpoint: 19.4°C (67°F) [RH = 81%]
Pressure (altimeter): 30.11 inches Hg (1019.7 mb)
[Sea-level pressure: 1019.6 mb]
Winds: from the NE (50 degrees) at 13 MPH (11 knots; 5.7 m/s)
Visibility: 10 or more miles (16+ km)
Ceiling: 1000 feet AGL
Clouds: broken clouds at 1000 feet AGL
overcast cloud deck at 1400 feet AGL
Weather: no significant weather observed at this time

METAR text: KLGA 180251Z 05009KT 10SM BKN010 OVC015 23/20 A3012 RMK AO2 SLP200 T02280200 58006
Conditions at: KLGA (NYC/LA GUARDIA , NY, US) observed 0251 UTC 18 September 2021
Temperature: 22.8°C (73°F)
Dewpoint: 20.0°C (68°F) [RH = 84%]
Pressure (altimeter): 30.12 inches Hg (1020.1 mb)
[Sea-level pressure: 1020.0 mb]
Winds: from the NE (50 degrees) at 10 MPH (9 knots; 4.6 m/s)
Visibility: 10 or more miles (16+ km)
Ceiling: 1000 feet AGL
Clouds: broken clouds at 1000 feet AGL
overcast cloud deck at 1500 feet AGL
Weather: no significant weather observed at this time

METAR text: KLGA 180151Z 06008KT 10SM BKN012 BKN055 23/20 A3014 RMK AO2 SLP205 T02330200
Conditions at: KLGA (NYC/LA GUARDIA , NY, US) observed 0151 UTC 18 September 2021
Temperature: 23.3°C (74°F)
Dewpoint: 20.0°C (68°F) [RH = 82%]
Pressure (altimeter): 30.14 inches Hg (1020.7 mb)
[Sea-level pressure: 1020.5 mb]
Winds: from the ENE (60 degrees) at 9 MPH (8 knots; 4.1 m/s)
Visibility: 10 or more miles (16+ km)
Ceiling: 1200 feet AGL
Clouds: broken clouds at 1200 feet AGL
broken clouds at 5500 feet AGL
Weather: no significant weather observed at this time

METAR text: KLGA 180051Z 06008KT 10SM BKN014 OVC055 23/20 A3014 RMK AO2 SLP208 T02330200
Conditions at: KLGA (NYC/LA GUARDIA , NY, US) observed 0051 UTC 18 September 2021
Temperature: 23.3°C (74°F)
Dewpoint: 20.0°C (68°F) [RH = 82%]
Pressure (altimeter): 30.14 inches Hg (1020.7 mb)
[Sea-level pressure: 1020.8 mb]
Winds: from the ENE (60 degrees) at 9 MPH (8 knots; 4.1 m/s)
Visibility: 10 or more miles (16+ km)
Ceiling: 1400 feet AGL
Clouds: broken clouds at 1400 feet AGL
overcast cloud deck at 5500 feet AGL
Weather: no significant weather observed at this time

METAR text: KLGA 180031Z 06008KT 10SM BKN014 BKN055 23/21 A3014 RMK AO2 T02330206
Conditions at: KLGA (NYC/LA GUARDIA , NY, US) observed 0031 UTC 18 September 2021
Temperature: 23.3°C (74°F)
Dewpoint: 20.6°C (69°F) [RH = 85%]
Pressure (altimeter): 30.14 inches Hg (1020.7 mb)
Winds: from the ENE (60 degrees) at 9 MPH (8 knots; 4.1 m/s)
Visibility: 10 or more miles (16+ km)
Ceiling: 1400 feet AGL
Clouds: broken clouds at 1400 feet AGL
broken clouds at 5500 feet AGL
Weather: no significant weather observed at this time

METAR text: KLGA 172351Z 05008KT 10SM BKN016 BKN022 BKN070 23/20 A3014 RMK AO2 SLP206 T02330200 10239 20228 56008
Conditions at: KLGA (NYC/LA GUARDIA , NY, US) observed 2351 UTC 17 September 2021
Temperature: 23.3°C (74°F)
Dewpoint: 20.0°C (68°F) [RH = 82%]
Pressure (altimeter): 30.14 inches Hg (1020.7 mb)
[Sea-level pressure: 1020.6 mb]
Winds: from the NE (50 degrees) at 9 MPH (8 knots; 4.1 m/s)
Visibility: 10 or more miles (16+ km)
Ceiling: 1600 feet AGL
Clouds: broken clouds at 1600 feet AGL
broken clouds at 2200 feet AGL
broken clouds at 7000 feet AGL
Weather: no significant weather observed at this time

METAR text: KLGA 172333Z 05009KT 10SM BKN016 BKN022 BKN070 23/20 A3014 RMK AO2 T02330200
Conditions at: KLGA (NYC/LA GUARDIA , NY, US) observed 2333 UTC 17 September 2021
Temperature: 23.3°C (74°F)
Dewpoint: 20.0°C (68°F) [RH = 82%]
Pressure (altimeter): 30.14 inches Hg (1020.7 mb)
Winds: from the NE (50 degrees) at 10 MPH (9 knots; 4.6 m/s)
Visibility: 10 or more miles (16+ km)
Ceiling: 1600 feet AGL
Clouds: broken clouds at 1600 feet AGL
broken clouds at 2200 feet AGL
broken clouds at 7000 feet AGL
Weather: no significant weather observed at this time

METAR text: KLGA 172251Z 04010KT 10SM BKN018 BKN060 23/20 A3014 RMK AO2 SLP206 T02330200
Conditions at: KLGA (NYC/LA GUARDIA , NY, US) observed 2251 UTC 17 September 2021
Temperature: 23.3°C (74°F)
Dewpoint: 20.0°C (68°F) [RH = 82%]
Pressure (altimeter): 30.14 inches Hg (1020.7 mb)
[Sea-level pressure: 1020.6 mb]
Winds: from the NE (40 degrees) at 12 MPH (10 knots; 5.1 m/s)
Visibility: 10 or more miles (16+ km)
Ceiling: 1800 feet AGL
Clouds: broken clouds at 1800 feet AGL
broken clouds at 6000 feet AGL
Weather: no significant weather observed at this time

METAR text: KLGA 172151Z 05008KT 10SM SCT015 BKN022 BKN085 24/20 A3015 RMK AO2 SLP210 T02390200
Conditions at: KLGA (NYC/LA GUARDIA , NY, US) observed 2151 UTC 17 September 2021
Temperature: 23.9°C (75°F)
Dewpoint: 20.0°C (68°F) [RH = 79%]
Pressure (altimeter): 30.15 inches Hg (1021.1 mb)
[Sea-level pressure: 1021.0 mb]
Winds: from the NE (50 degrees) at 9 MPH (8 knots; 4.1 m/s)
Visibility: 10 or more miles (16+ km)
Ceiling: 2200 feet AGL
Clouds: scattered clouds at 1500 feet AGL
broken clouds at 2200 feet AGL
broken clouds at 8500 feet AGL
Weather: no significant weather observed at this time

METAR text: KLGA 172140Z 04009KT 10SM SCT015 OVC022 24/20 A3015 RMK AO2 T02390200
Conditions at: KLGA (NYC/LA GUARDIA , NY, US) observed 2140 UTC 17 September 2021
Temperature: 23.9°C (75°F)
Dewpoint: 20.0°C (68°F) [RH = 79%]
Pressure (altimeter): 30.15 inches Hg (1021.1 mb)
Winds: from the NE (40 degrees) at 10 MPH (9 knots; 4.6 m/s)
Visibility: 10 or more miles (16+ km)
Ceiling: 2200 feet AGL
Clouds: scattered clouds at 1500 feet AGL
overcast cloud deck at 2200 feet AGL
Weather: no significant weather observed at this time

METAR text: KLGA 172130Z 04010KT 10SM BKN014 BKN025 OVC038 23/20 A3016 RMK AO2 T02330200
Conditions at: KLGA (NYC/LA GUARDIA , NY, US) observed 2130 UTC 17 September 2021
Temperature: 23.3°C (74°F)
Dewpoint: 20.0°C (68°F) [RH = 82%]
Pressure (altimeter): 30.16 inches Hg (1021.4 mb)
Winds: from the NE (40 degrees) at 12 MPH (10 knots; 5.1 m/s)
Visibility: 10 or more miles (16+ km)
Ceiling: 1400 feet AGL
Clouds: broken clouds at 1400 feet AGL
broken clouds at 2500 feet AGL
overcast cloud deck at 3800 feet AGL
Weather: no significant weather observed at this time

METAR text: KLGA 172051Z 04012KT 10SM BKN024 BKN060 23/19 A3016 RMK AO2 SLP214 T02330194 58008
Conditions at: KLGA (NYC/LA GUARDIA , NY, US) observed 2051 UTC 17 September 2021
Temperature: 23.3°C (74°F)
Dewpoint: 19.4°C (67°F) [RH = 79%]
Pressure (altimeter): 30.16 inches Hg (1021.4 mb)
[Sea-level pressure: 1021.4 mb]
Winds: from the NE (40 degrees) at 14 MPH (12 knots; 6.2 m/s)
Visibility: 10 or more miles (16+ km)
Ceiling: 2400 feet AGL
Clouds: broken clouds at 2400 feet AGL
broken clouds at 6000 feet AGL
Weather: no significant weather observed at this time

METAR text: KLGA 171951Z 04012KT 10SM OVC018 24/19 A3017 RMK AO2 SLP218 T02390194
Conditions at: KLGA (NYC/LA GUARDIA , NY, US) observed 1951 UTC 17 September 2021
Temperature: 23.9°C (75°F)
Dewpoint: 19.4°C (67°F) [RH = 76%]
Pressure (altimeter): 30.17 inches Hg (1021.8 mb)
[Sea-level pressure: 1021.8 mb]
Winds: from the NE (40 degrees) at 14 MPH (12 knots; 6.2 m/s)
Visibility: 10 or more miles (16+ km)
Ceiling: 1800 feet AGL
Clouds: overcast cloud deck at 1800 feet AGL
Weather: no significant weather observed at this time

METAR text: KLGA 171946Z 04011KT 10SM OVC016 24/19 A3018 RMK AO2
Conditions at: KLGA (NYC/LA GUARDIA , NY, US) observed 1946 UTC 17 September 2021
Temperature: 24.0°C (75°F)
Dewpoint: 19.0°C (66°F) [RH = 74%]
Pressure (altimeter): 30.18 inches Hg (1022.1 mb)
Winds: from the NE (40 degrees) at 13 MPH (11 knots; 5.7 m/s)
Visibility: 10 or more miles (16+ km)
Ceiling: 1600 feet AGL
Clouds: overcast cloud deck at 1600 feet AGL
Weather: no significant weather observed at this time

METAR text: KLGA 171851Z 05011KT 10SM BKN011 OVC020 23/19 A3019 RMK AO2 SLP222 T02330194
Conditions at: KLGA (NYC/LA GUARDIA , NY, US) observed 1851 UTC 17 September 2021
Temperature: 23.3°C (74°F)
Dewpoint: 19.4°C (67°F) [RH = 79%]
Pressure (altimeter): 30.19 inches Hg (1022.4 mb)
[Sea-level pressure: 1022.2 mb]
Winds: from the NE (50 degrees) at 13 MPH (11 knots; 5.7 m/s)
Visibility: 10 or more miles (16+ km)
Ceiling: 1100 feet AGL
Clouds: broken clouds at 1100 feet AGL
overcast cloud deck at 2000 feet AGL
Weather: no significant weather observed at this time

METAR text: KLGA 171751Z 05012KT 10SM OVC011 23/19 A3021 RMK AO2 SLP229 T02280189 10233 20211 58011
Conditions at: KLGA (NYC/LA GUARDIA , NY, US) observed 1751 UTC 17 September 2021
Temperature: 22.8°C (73°F)
Dewpoint: 18.9°C (66°F) [RH = 79%]
Pressure (altimeter): 30.21 inches Hg (1023.1 mb)
[Sea-level pressure: 1022.9 mb]
Winds: from the NE (50 degrees) at 14 MPH (12 knots; 6.2 m/s)
Visibility: 10 or more miles (16+ km)
Ceiling: 1100 feet AGL
Clouds: overcast cloud deck at 1100 feet AGL
Weather: no significant weather observed at this time

METAR text: KLGA 171651Z 05010KT 10SM OVC010 23/19 A3023 RMK AO2 SLP236 T02280189
Conditions at: KLGA (NYC/LA GUARDIA , NY, US) observed 1651 UTC 17 September 2021
Temperature: 22.8°C (73°F)
Dewpoint: 18.9°C (66°F) [RH = 79%]
Pressure (altimeter): 30.23 inches Hg (1023.8 mb)
[Sea-level pressure: 1023.6 mb]
Winds: from the NE (50 degrees) at 12 MPH (10 knots; 5.1 m/s)
Visibility: 10 or more miles (16+ km)
Ceiling: 1000 feet AGL
Clouds: overcast cloud deck at 1000 feet AGL
Weather: no significant weather observed at this time

METAR text: KLGA 171647Z 05012KT 10SM OVC010 22/19 A3023 RMK AO2
Conditions at: KLGA (NYC/LA GUARDIA , NY, US) observed 1647 UTC 17 September 2021
Temperature: 22.0°C (72°F)
Dewpoint: 19.0°C (66°F) [RH = 83%]
Pressure (altimeter): 30.23 inches Hg (1023.8 mb)
Winds: from the NE (50 degrees) at 14 MPH (12 knots; 6.2 m/s)
Visibility: 10 or more miles (16+ km)
Ceiling: 1000 feet AGL
Clouds: overcast cloud deck at 1000 feet AGL
Weather: no significant weather observed at this time

METAR text: KLGA 171551Z 05012KT 10SM OVC009 22/18 A3024 RMK AO2 SLP240 T02220183
Conditions at: KLGA (NYC/LA GUARDIA , NY, US) observed 1551 UTC 17 September 2021
Temperature: 22.2°C (72°F)
Dewpoint: 18.3°C (65°F) [RH = 79%]
Pressure (altimeter): 30.24 inches Hg (1024.1 mb)
[Sea-level pressure: 1024.0 mb]
Winds: from the NE (50 degrees) at 14 MPH (12 knots; 6.2 m/s)
Visibility: 10 or more miles (16+ km)
Ceiling: 900 feet AGL
Clouds: overcast cloud deck at 900 feet AGL
Weather: no significant weather observed at this time

METAR text: KLGA 171451Z 05013KT 10SM OVC008 22/18 A3025 RMK AO2 SLP243 T02170183 58003
Conditions at: KLGA (NYC/LA GUARDIA , NY, US) observed 1451 UTC 17 September 2021
Temperature: 21.7°C (71°F)
Dewpoint: 18.3°C (65°F) [RH = 81%]
Pressure (altimeter): 30.25 inches Hg (1024.5 mb)
[Sea-level pressure: 1024.3 mb]
Winds: from the NE (50 degrees) at 15 MPH (13 knots; 6.7 m/s)
Visibility: 10 or more miles (16+ km)
Ceiling: 800 feet AGL
Clouds: overcast cloud deck at 800 feet AGL
Weather: no significant weather observed at this time

METAR text: KLGA 171351Z 06015KT 10SM OVC007 22/18 A3026 RMK AO2 SLP246 T02170183
Conditions at: KLGA (NYC/LA GUARDIA , NY, US) observed 1351 UTC 17 September 2021
Temperature: 21.7°C (71°F)
Dewpoint: 18.3°C (65°F) [RH = 81%]
Pressure (altimeter): 30.26 inches Hg (1024.8 mb)
[Sea-level pressure: 1024.6 mb]
Winds: from the ENE (60 degrees) at 17 MPH (15 knots; 7.7 m/s)
Visibility: 10 or more miles (16+ km)
Ceiling: 700 feet AGL
Clouds: overcast cloud deck at 700 feet AGL
Weather: no significant weather observed at this time

METAR text: KLGA 171322Z 06013KT 10SM OVC006 22/19 A3026 RMK AO2 T02170189
Conditions at: KLGA (NYC/LA GUARDIA , NY, US) observed 1322 UTC 17 September 2021
Temperature: 21.7°C (71°F)
Dewpoint: 18.9°C (66°F) [RH = 84%]
Pressure (altimeter): 30.26 inches Hg (1024.8 mb)
Winds: from the ENE (60 degrees) at 15 MPH (13 knots; 6.7 m/s)
Visibility: 10 or more miles (16+ km)
Ceiling: 600 feet AGL
Clouds: overcast cloud deck at 600 feet AGL
Weather: no significant weather observed at this time

METAR text: KLGA 171251Z 05014KT 7SM OVC007 22/19 A3026 RMK AO2 SLP245 T02170189
Conditions at: KLGA (NYC/LA GUARDIA , NY, US) observed 1251 UTC 17 September 2021
Temperature: 21.7°C (71°F)
Dewpoint: 18.9°C (66°F) [RH = 84%]
Pressure (altimeter): 30.26 inches Hg (1024.8 mb)
[Sea-level pressure: 1024.5 mb]
Winds: from the NE (50 degrees) at 16 MPH (14 knots; 7.2 m/s)
Visibility: 7 miles (11 km)
Ceiling: 700 feet AGL
Clouds: overcast cloud deck at 700 feet AGL
Weather: no significant weather observed at this time

METAR text: KLGA 171233Z 06014KT 7SM OVC007 22/19 A3025 RMK AO2 T02170189
Conditions at: KLGA (NYC/LA GUARDIA , NY, US) observed 1233 UTC 17 September 2021
Temperature: 21.7°C (71°F)
Dewpoint: 18.9°C (66°F) [RH = 84%]
Pressure (altimeter): 30.25 inches Hg (1024.5 mb)
Winds: from the ENE (60 degrees) at 16 MPH (14 knots; 7.2 m/s)
Visibility: 7 miles (11 km)
Ceiling: 700 feet AGL
Clouds: overcast cloud deck at 700 feet AGL
Weather: no significant weather observed at this time

METAR text: KLGA 171151Z 06011KT 6SM BR OVC006 22/19 A3026 RMK AO2 SLP246 T02170189 10228 20211 51015
Conditions at: KLGA (NYC/LA GUARDIA , NY, US) observed 1151 UTC 17 September 2021
Temperature: 21.7°C (71°F)
Dewpoint: 18.9°C (66°F) [RH = 84%]
Pressure (altimeter): 30.26 inches Hg (1024.8 mb)
[Sea-level pressure: 1024.6 mb]
Winds: from the ENE (60 degrees) at 13 MPH (11 knots; 5.7 m/s)
Visibility: 6 miles (10 km)
Ceiling: 600 feet AGL
Clouds: overcast cloud deck at 600 feet AGL
Weather: BR  (mist)

METAR text: KLGA 171106Z 06014KT 7SM OVC006 21/19 A3025 RMK AO2 T02110189
Conditions at: KLGA (NYC/LA GUARDIA , NY, US) observed 1106 UTC 17 September 2021
Temperature: 21.1°C (70°F)
Dewpoint: 18.9°C (66°F) [RH = 87%]
Pressure (altimeter): 30.25 inches Hg (1024.5 mb)
Winds: from the ENE (60 degrees) at 16 MPH (14 knots; 7.2 m/s)
Visibility: 7 miles (11 km)
Ceiling: 600 feet AGL
Clouds: overcast cloud deck at 600 feet AGL
Weather: no significant weather observed at this time

METAR text: KLGA 171051Z 05014KT 4SM BR OVC007 21/18 A3024 RMK AO2 SLP241 T02110183
Conditions at: KLGA (NYC/LA GUARDIA , NY, US) observed 1051 UTC 17 September 2021
Temperature: 21.1°C (70°F)
Dewpoint: 18.3°C (65°F) [RH = 84%]
Pressure (altimeter): 30.24 inches Hg (1024.1 mb)
[Sea-level pressure: 1024.1 mb]
Winds: from the NE (50 degrees) at 16 MPH (14 knots; 7.2 m/s)
Visibility: 4 miles ( 6 km)
Ceiling: 700 feet AGL
Clouds: overcast cloud deck at 700 feet AGL
Weather: BR  (mist)

METAR text: KLGA 171007Z 05013KT 10SM OVC007 22/19 A3023 RMK AO2 T02170189
Conditions at: KLGA (NYC/LA GUARDIA , NY, US) observed 1007 UTC 17 September 2021
Temperature: 21.7°C (71°F)
Dewpoint: 18.9°C (66°F) [RH = 84%]
Pressure (altimeter): 30.23 inches Hg (1023.8 mb)
Winds: from the NE (50 degrees) at 15 MPH (13 knots; 6.7 m/s)
Visibility: 10 or more miles (16+ km)
Ceiling: 700 feet AGL
Clouds: overcast cloud deck at 700 feet AGL
Weather: no significant weather observed at this time

METAR text: KLGA 170951Z 06014KT 10SM OVC006 22/19 A3023 RMK AO2 SLP236 T02170189
Conditions at: KLGA (NYC/LA GUARDIA , NY, US) observed 0951 UTC 17 September 2021
Temperature: 21.7°C (71°F)
Dewpoint: 18.9°C (66°F) [RH = 84%]
Pressure (altimeter): 30.23 inches Hg (1023.8 mb)
[Sea-level pressure: 1023.6 mb]
Winds: from the ENE (60 degrees) at 16 MPH (14 knots; 7.2 m/s)
Visibility: 10 or more miles (16+ km)
Ceiling: 600 feet AGL
Clouds: overcast cloud deck at 600 feet AGL
Weather: no significant weather observed at this time

METAR text: KLGA 170920Z 05012KT 10SM OVC006 22/19 A3022 RMK AO2 T02170189
Conditions at: KLGA (NYC/LA GUARDIA , NY, US) observed 0920 UTC 17 September 2021
Temperature: 21.7°C (71°F)
Dewpoint: 18.9°C (66°F) [RH = 84%]
Pressure (altimeter): 30.22 inches Hg (1023.5 mb)
Winds: from the NE (50 degrees) at 14 MPH (12 knots; 6.2 m/s)
Visibility: 10 or more miles (16+ km)
Ceiling: 600 feet AGL
Clouds: overcast cloud deck at 600 feet AGL
Weather: no significant weather observed at this time

METAR text: KLGA 170851Z 06014KT 10SM OVC008 22/19 A3021 RMK AO2 SLP231 T02220189 55002
Conditions at: KLGA (NYC/LA GUARDIA , NY, US) observed 0851 UTC 17 September 2021
Temperature: 22.2°C (72°F)
Dewpoint: 18.9°C (66°F) [RH = 82%]
Pressure (altimeter): 30.21 inches Hg (1023.1 mb)
[Sea-level pressure: 1023.1 mb]
Winds: from the ENE (60 degrees) at 16 MPH (14 knots; 7.2 m/s)
Visibility: 10 or more miles (16+ km)
Ceiling: 800 feet AGL
Clouds: overcast cloud deck at 800 feet AGL
Weather: no significant weather observed at this time

METAR text: KLGA 170751Z 06012KT 10SM OVC008 22/19 A3021 RMK AO2 SLP229 T02220189
Conditions at: KLGA (NYC/LA GUARDIA , NY, US) observed 0751 UTC 17 September 2021
Temperature: 22.2°C (72°F)
Dewpoint: 18.9°C (66°F) [RH = 82%]
Pressure (altimeter): 30.21 inches Hg (1023.1 mb)
[Sea-level pressure: 1022.9 mb]
Winds: from the ENE (60 degrees) at 14 MPH (12 knots; 6.2 m/s)
Visibility: 10 or more miles (16+ km)
Ceiling: 800 feet AGL
Clouds: overcast cloud deck at 800 feet AGL
Weather: no significant weather observed at this time

METAR text: KLGA 170739Z 07009KT 10SM OVC008 22/19 A3021 RMK AO2 T02220189
Conditions at: KLGA (NYC/LA GUARDIA , NY, US) observed 0739 UTC 17 September 2021
Temperature: 22.2°C (72°F)
Dewpoint: 18.9°C (66°F) [RH = 82%]
Pressure (altimeter): 30.21 inches Hg (1023.1 mb)
Winds: from the ENE (70 degrees) at 10 MPH (9 knots; 4.6 m/s)
Visibility: 10 or more miles (16+ km)
Ceiling: 800 feet AGL
Clouds: overcast cloud deck at 800 feet AGL
Weather: no significant weather observed at this time

METAR text: KLGA 170651Z 07011KT 10SM OVC010 23/19 A3021 RMK AO2 SLP230 T02280194
Conditions at: KLGA (NYC/LA GUARDIA , NY, US) observed 0651 UTC 17 September 2021
Temperature: 22.8°C (73°F)
Dewpoint: 19.4°C (67°F) [RH = 81%]
Pressure (altimeter): 30.21 inches Hg (1023.1 mb)
[Sea-level pressure: 1023.0 mb]
Winds: from the ENE (70 degrees) at 13 MPH (11 knots; 5.7 m/s)
Visibility: 10 or more miles (16+ km)
Ceiling: 1000 feet AGL
Clouds: overcast cloud deck at 1000 feet AGL
Weather: no significant weather observed at this time

METAR text: KLGA 170639Z 07010KT 9SM OVC010 23/19 A3021 RMK AO2 T02280194
Conditions at: KLGA (NYC/LA GUARDIA , NY, US) observed 0639 UTC 17 September 2021
Temperature: 22.8°C (73°F)
Dewpoint: 19.4°C (67°F) [RH = 81%]
Pressure (altimeter): 30.21 inches Hg (1023.1 mb)
Winds: from the ENE (70 degrees) at 12 MPH (10 knots; 5.1 m/s)
Visibility: 9 miles (14 km)
Ceiling: 1000 feet AGL
Clouds: overcast cloud deck at 1000 feet AGL
Weather: no significant weather observed at this time

METAR text: KLGA 170551Z 05010KT 10SM BKN016 OVC020 23/19 A3022 RMK AO2 SLP233 T02280194 10233 20222 58004
Conditions at: KLGA (NYC/LA GUARDIA , NY, US) observed 0551 UTC 17 September 2021
Temperature: 22.8°C (73°F)
Dewpoint: 19.4°C (67°F) [RH = 81%]
Pressure (altimeter): 30.22 inches Hg (1023.5 mb)
[Sea-level pressure: 1023.3 mb]
Winds: from the NE (50 degrees) at 12 MPH (10 knots; 5.1 m/s)
Visibility: 10 or more miles (16+ km)
Ceiling: 1600 feet AGL
Clouds: broken clouds at 1600 feet AGL
overcast cloud deck at 2000 feet AGL
Weather: no significant weather observed at this time

METAR text: KLGA 170544Z 05006KT 10SM OVC016 23/19 A3022 RMK AO2 T02280194
Conditions at: KLGA (NYC/LA GUARDIA , NY, US) observed 0544 UTC 17 September 2021
Temperature: 22.8°C (73°F)
Dewpoint: 19.4°C (67°F) [RH = 81%]
Pressure (altimeter): 30.22 inches Hg (1023.5 mb)
Winds: from the NE (50 degrees) at 7 MPH (6 knots; 3.1 m/s)
Visibility: 10 or more miles (16+ km)
Ceiling: 1600 feet AGL
Clouds: overcast cloud deck at 1600 feet AGL
Weather: no significant weather observed at this time

METAR text: KLGA 170451Z 06009KT 10SM OVC011 22/19 A3023 RMK AO2 SLP238 T02220189 402500222
Conditions at: KLGA (NYC/LA GUARDIA , NY, US) observed 0451 UTC 17 September 2021
Temperature: 22.2°C (72°F)
Dewpoint: 18.9°C (66°F) [RH = 82%]
Pressure (altimeter): 30.23 inches Hg (1023.8 mb)
[Sea-level pressure: 1023.8 mb]
Winds: from the ENE (60 degrees) at 10 MPH (9 knots; 4.6 m/s)
Visibility: 10 or more miles (16+ km)
Ceiling: 1100 feet AGL
Clouds: overcast cloud deck at 1100 feet AGL
Weather: no significant weather observed at this time

METAR text: KLGA 170351Z 05009KT 10SM OVC012 23/19 A3023 RMK AO2 SLP237 T02280194
Conditions at: KLGA (NYC/LA GUARDIA , NY, US) observed 0351 UTC 17 September 2021
Temperature: 22.8°C (73°F)
Dewpoint: 19.4°C (67°F) [RH = 81%]
Pressure (altimeter): 30.23 inches Hg (1023.8 mb)
[Sea-level pressure: 1023.7 mb]
Winds: from the NE (50 degrees) at 10 MPH (9 knots; 4.6 m/s)
Visibility: 10 or more miles (16+ km)
Ceiling: 1200 feet AGL
Clouds: overcast cloud deck at 1200 feet AGL
Weather: no significant weather observed at this time

METAR text: KLGA 170251Z 06009KT 10SM OVC012 23/19 A3023 RMK AO2 SLP237 T02280189 50000
Conditions at: KLGA (NYC/LA GUARDIA , NY, US) observed 0251 UTC 17 September 2021
Temperature: 22.8°C (73°F)
Dewpoint: 18.9°C (66°F) [RH = 79%]
Pressure (altimeter): 30.23 inches Hg (1023.8 mb)
[Sea-level pressure: 1023.7 mb]
Winds: from the ENE (60 degrees) at 10 MPH (9 knots; 4.6 m/s)
Visibility: 10 or more miles (16+ km)
Ceiling: 1200 feet AGL
Clouds: overcast cloud deck at 1200 feet AGL
Weather: no significant weather observed at this time

METAR text: KLGA 170151Z 08009KT 10SM BKN014 OVC025 23/19 A3023 RMK AO2 SLP238 T02330189
Conditions at: KLGA (NYC/LA GUARDIA , NY, US) observed 0151 UTC 17 September 2021
Temperature: 23.3°C (74°F)
Dewpoint: 18.9°C (66°F) [RH = 76%]
Pressure (altimeter): 30.23 inches Hg (1023.8 mb)
[Sea-level pressure: 1023.8 mb]
Winds: from the E (80 degrees) at 10 MPH (9 knots; 4.6 m/s)
Visibility: 10 or more miles (16+ km)
Ceiling: 1400 feet AGL
Clouds: broken clouds at 1400 feet AGL
overcast cloud deck at 2500 feet AGL
Weather: no significant weather observed at this time

METAR text: KLGA 170146Z 08009KT 10SM BKN014 OVC025 23/19 A3024 RMK AO2
Conditions at: KLGA (NYC/LA GUARDIA , NY, US) observed 0146 UTC 17 September 2021
Temperature: 23.0°C (73°F)
Dewpoint: 19.0°C (66°F) [RH = 78%]
Pressure (altimeter): 30.24 inches Hg (1024.1 mb)
Winds: from the E (80 degrees) at 10 MPH (9 knots; 4.6 m/s)
Visibility: 10 or more miles (16+ km)
Ceiling: 1400 feet AGL
Clouds: broken clouds at 1400 feet AGL
overcast cloud deck at 2500 feet AGL
Weather: no significant weather observed at this time

METAR text: KLGA 170051Z 07012KT 10SM FEW015 BKN020 OVC035 23/19 A3023 RMK AO2 SLP237 T02280189
Conditions at: KLGA (NYC/LA GUARDIA , NY, US) observed 0051 UTC 17 September 2021
Temperature: 22.8°C (73°F)
Dewpoint: 18.9°C (66°F) [RH = 79%]
Pressure (altimeter): 30.23 inches Hg (1023.8 mb)
[Sea-level pressure: 1023.7 mb]
Winds: from the ENE (70 degrees) at 14 MPH (12 knots; 6.2 m/s)
Visibility: 10 or more miles (16+ km)
Ceiling: 2000 feet AGL
Clouds: few clouds at 1500 feet AGL
broken clouds at 2000 feet AGL
overcast cloud deck at 3500 feet AGL
Weather: no significant weather observed at this time

METAR text: KLGA 162351Z 05011KT 10SM BKN023 BKN030 OVC250 23/18 A3022 RMK AO2 SLP233 T02330183 10244 20233 51009
Conditions at: KLGA (NYC/LA GUARDIA , NY, US) observed 2351 UTC 16 September 2021
Temperature: 23.3°C (74°F)
Dewpoint: 18.3°C (65°F) [RH = 74%]
Pressure (altimeter): 30.22 inches Hg (1023.5 mb)
[Sea-level pressure: 1023.3 mb]
Winds: from the NE (50 degrees) at 13 MPH (11 knots; 5.7 m/s)
Visibility: 10 or more miles (16+ km)
Ceiling: 2300 feet AGL
Clouds: broken clouds at 2300 feet AGL
broken clouds at 3000 feet AGL
overcast cloud deck at 25000 feet AGL
Weather: no significant weather observed at this time

METAR text: KLGA 162312Z 06013KT 10SM BKN028 BKN036 OVC250 23/18 A3022 RMK AO2 T02330178
Conditions at: KLGA (NYC/LA GUARDIA , NY, US) observed 2312 UTC 16 September 2021
Temperature: 23.3°C (74°F)
Dewpoint: 17.8°C (64°F) [RH = 71%]
Pressure (altimeter): 30.22 inches Hg (1023.5 mb)
Winds: from the ENE (60 degrees) at 15 MPH (13 knots; 6.7 m/s)
Visibility: 10 or more miles (16+ km)
Ceiling: 2800 feet AGL
Clouds: broken clouds at 2800 feet AGL
broken clouds at 3600 feet AGL
overcast cloud deck at 25000 feet AGL
Weather: no significant weather observed at this time

METAR text: KLGA 162251Z 05011KT 10SM FEW030 BKN035 BKN044 OVC250 23/18 A3022 RMK AO2 SLP233 T02330183
Conditions at: KLGA (NYC/LA GUARDIA , NY, US) observed 2251 UTC 16 September 2021
Temperature: 23.3°C (74°F)
Dewpoint: 18.3°C (65°F) [RH = 74%]
Pressure (altimeter): 30.22 inches Hg (1023.5 mb)
[Sea-level pressure: 1023.3 mb]
Winds: from the NE (50 degrees) at 13 MPH (11 knots; 5.7 m/s)
Visibility: 10 or more miles (16+ km)
Ceiling: 3500 feet AGL
Clouds: few clouds at 3000 feet AGL
broken clouds at 3500 feet AGL
broken clouds at 4400 feet AGL
overcast cloud deck at 25000 feet AGL
Weather: no significant weather observed at this time

METAR text: KLGA 162151Z 06014KT 10SM FEW025 BKN032 OVC065 24/18 A3020 RMK AO2 SLP228 T02390183
Conditions at: KLGA (NYC/LA GUARDIA , NY, US) observed 2151 UTC 16 September 2021
Temperature: 23.9°C (75°F)
Dewpoint: 18.3°C (65°F) [RH = 71%]
Pressure (altimeter): 30.20 inches Hg (1022.8 mb)
[Sea-level pressure: 1022.8 mb]
Winds: from the ENE (60 degrees) at 16 MPH (14 knots; 7.2 m/s)
Visibility: 10 or more miles (16+ km)
Ceiling: 3200 feet AGL
Clouds: few clouds at 2500 feet AGL
broken clouds at 3200 feet AGL
overcast cloud deck at 6500 feet AGL
Weather: no significant weather observed at this time

METAR text: KLGA 162051Z 05013KT 10SM FEW025 OVC034 24/18 A3019 RMK AO2 SLP224 T02390183 55006
Conditions at: KLGA (NYC/LA GUARDIA , NY, US) observed 2051 UTC 16 September 2021
Temperature: 23.9°C (75°F)
Dewpoint: 18.3°C (65°F) [RH = 71%]
Pressure (altimeter): 30.19 inches Hg (1022.4 mb)
[Sea-level pressure: 1022.4 mb]
Winds: from the NE (50 degrees) at 15 MPH (13 knots; 6.7 m/s)
Visibility: 10 or more miles (16+ km)
Ceiling: 3400 feet AGL
Clouds: few clouds at 2500 feet AGL
overcast cloud deck at 3400 feet AGL
Weather: no significant weather observed at this time

METAR text: KLGA 161951Z 05014KT 10SM OVC040 24/18 A3019 RMK AO2 SLP222 T02390183
Conditions at: KLGA (NYC/LA GUARDIA , NY, US) observed 1951 UTC 16 September 2021
Temperature: 23.9°C (75°F)
Dewpoint: 18.3°C (65°F) [RH = 71%]
Pressure (altimeter): 30.19 inches Hg (1022.4 mb)
[Sea-level pressure: 1022.2 mb]
Winds: from the NE (50 degrees) at 16 MPH (14 knots; 7.2 m/s)
Visibility: 10 or more miles (16+ km)
Ceiling: 4000 feet AGL
Clouds: overcast cloud deck at 4000 feet AGL
Weather: no significant weather observed at this time

Forecast for: KLGA (NYC/LA GUARDIA , NY, US)
Text: KLGA 180528Z 1806/1912 03006KT P6SM SCT008 BKN015
Forecast period: 0600 to 1300 UTC 18 September 2021
Forecast type: FROM: standard forecast or significant change
Winds: from the NNE (30 degrees) at 7 MPH (6 knots; 3.1 m/s)
Visibility: 6 or more miles (10+ km)
Ceiling: 1500 feet AGL
Clouds: scattered clouds at 800 feet AGL
broken clouds at 1500 feet AGL
Weather: no significant weather forecast for this period
Text: TEMPO 1806/1810 BKN008
Forecast period: 0600 to 1000 UTC 18 September 2021
Forecast type: TEMPORARY: The following changes expected for less than half the time period
Visibility: missing
Ceiling: 800 feet AGL
Clouds: broken clouds at 800 feet AGL
Weather: no significant weather forecast for this period
Text: FM181300 36007KT P6SM SCT015 SCT040 SCT060
Forecast period: 1300 to 2100 UTC 18 September 2021
Forecast type: FROM: standard forecast or significant change
Winds: from the N (360 degrees) at 8 MPH (7 knots; 3.6 m/s)
Visibility: 6 or more miles (10+ km)
Ceiling: at least 12,000 feet AGL
Clouds: scattered clouds at 1500 feet AGL
scattered clouds at 4000 feet AGL
scattered clouds at 6000 feet AGL
Weather: no significant weather forecast for this period
Text: FM182100 29006KT P6SM SCT060
Forecast period: 2100 UTC 18 September 2021 to 0200 UTC 19 September 2021
Forecast type: FROM: standard forecast or significant change
Winds: from the WNW (290 degrees) at 7 MPH (6 knots; 3.1 m/s)
Visibility: 6 or more miles (10+ km)
Ceiling: at least 12,000 feet AGL
Clouds: scattered clouds at 6000 feet AGL
Weather: no significant weather forecast for this period
Text: FM190200 33009KT P6SM FEW060
Forecast period: 0200 to 1200 UTC 19 September 2021
Forecast type: FROM: standard forecast or significant change
Winds: from the NNW (330 degrees) at 10 MPH (9 knots; 4.6 m/s)
Visibility: 6 or more miles (10+ km)
Ceiling: at least 12,000 feet AGL
Clouds: few clouds at 6000 feet AGL
Weather: no significant weather forecast for this period